Unity House, Pennsylvania
Current Conditions -  °F | °C
As of 6:53 PM on Thursday 27 Nov 2014 (Local Time) from KMPO Reporting Station
Clear Clear  
Wind Chill: 15°   Ceiling: Unl
Heat Index: 24°   Visibility: 10mi
Dew Point: 19°   Wind: 8mph
Humidity: 81%   Direction: 320°NW
Pressure: 29.96"   Gusts: NA
Location:  41.15°N, 75.03°W
Report Text: KMPO 272353Z AUTO 32007KT 10SM CLR M04/M07 A2996 RMK AO2 SLP171 60000 T10441072 11011 21044 53007
Loading
Personal Weather Stations






























Interactive Weather Map New forecast layout! Learn more

10-Day Weather Forecast

Advertisements
Track Severe Weather on mobile